createdAt,value
2024-04-09T00:00:20.535Z,19.44
2024-04-09T00:02:50.952Z,19.54
2024-04-09T00:05:18.065Z,19.42
2024-04-09T00:07:45.108Z,19.39
2024-04-09T00:10:15.332Z,19.37
2024-04-09T00:12:48.268Z,19.28
2024-04-09T00:15:15.643Z,19.17
2024-04-09T00:17:56.570Z,19.19
2024-04-09T00:20:31.206Z,19.25
2024-04-09T00:23:00.975Z,19.34
2024-04-09T00:25:32.652Z,19.24
2024-04-09T00:28:00.957Z,19.23
2024-04-09T00:32:57.787Z,19.13
2024-04-09T00:35:28.595Z,19.17
2024-04-09T00:37:58.103Z,19.03
2024-04-09T00:40:31.431Z,18.98
2024-04-09T00:43:01.746Z,19.10
2024-04-09T00:45:30.829Z,18.98
2024-04-09T00:48:01.940Z,19.10
2024-04-09T00:50:30.977Z,19.06
2024-04-09T00:53:01.849Z,19.12
2024-04-09T00:55:33.722Z,19.04
2024-04-09T00:58:07.478Z,19.14
2024-04-09T01:00:35.136Z,19.11
2024-04-09T01:03:03.221Z,19.09
2024-04-09T01:05:31.610Z,19.01
2024-04-09T01:07:58.780Z,19.02
2024-04-09T01:10:26.008Z,19.01
2024-04-09T01:12:53.482Z,18.91
2024-04-09T01:15:25.688Z,18.98
2024-04-09T01:17:55.300Z,18.94
2024-04-09T01:20:25.719Z,18.94
2024-04-09T01:22:52.889Z,19.05
2024-04-09T01:25:21.732Z,19.07
2024-04-09T01:27:49.229Z,19.15
2024-04-09T01:30:16.470Z,18.91
2024-04-09T01:32:45.869Z,18.88
2024-04-09T01:35:15.665Z,18.77
2024-04-09T01:37:45.213Z,18.86
2024-04-09T01:40:13.943Z,18.83
2024-04-09T01:42:43.433Z,18.77
2024-04-09T01:45:10.668Z,18.67
2024-04-09T01:47:40.488Z,18.49
2024-04-09T01:50:11.342Z,18.55
2024-04-09T01:52:38.913Z,18.70
2024-04-09T01:55:06.877Z,18.72
2024-04-09T01:57:37.336Z,18.77
2024-04-09T02:00:13.158Z,18.76
2024-04-09T02:02:45.716Z,18.70
2024-04-09T02:05:15.644Z,18.79
2024-04-09T02:07:44.922Z,18.69
2024-04-09T02:10:13.124Z,18.77
2024-04-09T02:12:41.462Z,18.66
2024-04-09T02:15:09.295Z,18.66
2024-04-09T02:17:36.915Z,18.60
2024-04-09T02:20:11.649Z,18.53
2024-04-09T02:22:39.069Z,18.51
2024-04-09T02:25:06.800Z,18.59
2024-04-09T02:27:34.589Z,18.54
2024-04-09T02:30:04.471Z,18.60
2024-04-09T02:32:35.234Z,18.51
2024-04-09T02:35:05.822Z,18.17
2024-04-09T02:37:33.721Z,18.18
2024-04-09T02:40:01.446Z,18.12
2024-04-09T02:42:29.044Z,17.97
2024-04-09T02:44:56.118Z,17.99
2024-04-09T02:47:24.649Z,18.08
2024-04-09T02:49:54.761Z,17.97
2024-04-09T02:52:22.315Z,17.84
2024-04-09T02:54:55.061Z,17.65
2024-04-09T02:57:24.462Z,17.69
2024-04-09T02:59:55.153Z,17.76
2024-04-09T03:02:22.714Z,17.88
2024-04-09T03:04:55.062Z,17.83
2024-04-09T03:07:22.459Z,17.78
2024-04-09T03:09:52.726Z,17.79
2024-04-09T03:12:24.943Z,17.67
2024-04-09T03:14:52.659Z,17.78
2024-04-09T03:17:20.081Z,17.70
2024-04-09T03:19:53.313Z,17.62
2024-04-09T03:22:20.566Z,17.80
2024-04-09T03:24:51.006Z,17.80
2024-04-09T03:27:20.400Z,17.88
2024-04-09T03:29:53.333Z,17.64
2024-04-09T03:32:21.365Z,17.42
2024-04-09T03:34:51.175Z,17.54
2024-04-09T03:37:18.505Z,17.63
2024-04-09T03:39:45.727Z,17.78
2024-04-09T03:42:12.975Z,17.92
2024-04-09T03:44:40.216Z,17.95
2024-04-09T03:47:07.504Z,18.05
2024-04-09T03:49:38.535Z,18.11
2024-04-09T03:52:09.233Z,17.80
2024-04-09T03:54:39.756Z,17.50
2024-04-09T03:57:07.048Z,17.35
2024-04-09T03:59:38.240Z,17.51
2024-04-09T04:02:05.636Z,17.71
2024-04-09T04:04:33.053Z,17.75
2024-04-09T04:07:02.698Z,18.01
2024-04-09T04:09:29.957Z,18.13
2024-04-09T04:11:57.183Z,18.00
2024-04-09T04:14:26.725Z,18.06
2024-04-09T04:16:54.895Z,17.72
2024-04-09T04:19:24.334Z,17.60
2024-04-09T04:21:51.700Z,17.70
2024-04-09T04:24:19.323Z,17.50
2024-04-09T04:26:48.630Z,17.26
2024-04-09T04:29:15.828Z,17.19
2024-04-09T04:31:42.996Z,17.39
2024-04-09T04:34:12.475Z,17.57
2024-04-09T04:36:48.276Z,17.40
2024-04-09T04:39:16.379Z,17.57
2024-04-09T04:41:43.906Z,17.71
2024-04-09T04:44:11.705Z,17.34
2024-04-09T04:46:41.190Z,17.58
2024-04-09T04:49:08.494Z,17.72
2024-04-09T04:51:35.619Z,17.37
2024-04-09T04:54:02.849Z,17.67
2024-04-09T04:56:31.528Z,17.87
2024-04-09T04:58:58.661Z,17.82
2024-04-09T05:01:28.129Z,17.88
2024-04-09T05:03:55.767Z,18.04
2024-04-09T05:06:23.037Z,18.24
2024-04-09T05:08:50.190Z,18.36
2024-04-09T05:11:18.251Z,18.40
2024-04-09T05:13:46.080Z,18.56
2024-04-09T05:16:13.250Z,18.60
2024-04-09T05:18:40.623Z,18.77
2024-04-09T05:21:10.304Z,18.76
2024-04-09T05:23:38.267Z,18.73
2024-04-09T05:26:05.496Z,18.68
2024-04-09T05:28:32.733Z,18.44
2024-04-09T05:31:00.016Z,18.38
2024-04-09T05:33:27.370Z,18.55
2024-04-09T05:35:54.512Z,18.83
2024-04-09T05:38:21.717Z,18.97
2024-04-09T05:40:58.125Z,19.12
2024-04-09T05:43:30.263Z,19.35
2024-04-09T05:46:06.835Z,19.30
2024-04-09T05:48:34.232Z,19.50
2024-04-09T05:51:01.516Z,19.36
2024-04-09T05:53:28.999Z,19.54
2024-04-09T05:55:57.650Z,19.67
2024-04-09T05:58:29.352Z,19.71
2024-04-09T06:00:57.692Z,19.91
2024-04-09T06:03:25.388Z,20.03
2024-04-09T06:05:57.188Z,20.17
2024-04-09T06:08:29.623Z,19.86
2024-04-09T06:10:59.331Z,19.55
2024-04-09T06:13:29.573Z,19.81
2024-04-09T06:15:56.940Z,20.12
2024-04-09T06:18:27.631Z,20.04
2024-04-09T06:20:55.203Z,19.94
2024-04-09T06:23:23.146Z,19.92
2024-04-09T06:25:57.163Z,19.96
2024-04-09T06:28:26.760Z,19.68
2024-04-09T06:30:54.187Z,19.89
2024-04-09T06:33:22.183Z,19.87
2024-04-09T06:35:49.923Z,19.92
2024-04-09T06:38:21.059Z,19.95
2024-04-09T06:40:49.073Z,19.65
2024-04-09T06:43:16.391Z,19.16
2024-04-09T06:45:46.238Z,18.90
2024-04-09T06:48:13.703Z,19.07
2024-04-09T06:50:43.345Z,19.10
2024-04-09T06:53:13.245Z,19.47
2024-04-09T06:55:40.482Z,19.90
2024-04-09T06:58:10.243Z,20.05
2024-04-09T07:00:42.222Z,19.95
2024-04-09T07:03:09.533Z,19.81
2024-04-09T07:05:39.375Z,19.73
2024-04-09T07:08:07.701Z,19.82
2024-04-09T07:10:38.015Z,20.00
2024-04-09T07:13:08.306Z,20.48
2024-04-09T07:15:35.658Z,20.88
2024-04-09T07:18:05.144Z,21.01
2024-04-09T07:20:34.873Z,21.65
2024-04-09T07:23:03.712Z,21.64
2024-04-09T07:25:32.718Z,21.88
2024-04-09T07:27:59.822Z,22.08
2024-04-09T07:30:27.079Z,22.51
2024-04-09T07:32:56.654Z,22.93
2024-04-09T07:35:24.186Z,23.14
2024-04-09T07:37:53.802Z,23.59
2024-04-09T07:40:21.282Z,23.89
2024-04-09T07:42:48.604Z,24.02
2024-04-09T07:45:15.991Z,24.36
2024-04-09T07:47:43.226Z,24.48
2024-04-09T07:50:17.595Z,24.37
2024-04-09T07:52:49.469Z,24.34
2024-04-09T07:55:16.912Z,24.32
2024-04-09T07:57:44.602Z,24.09
2024-04-09T08:00:21.528Z,24.26
2024-04-09T08:02:51.840Z,24.50
2024-04-09T08:05:19.523Z,24.60
2024-04-09T08:07:47.024Z,24.66
2024-04-09T08:10:15.110Z,24.49
2024-04-09T08:12:56.712Z,24.69
2024-04-09T08:15:24.308Z,24.67
2024-04-09T08:17:51.890Z,24.36
2024-04-09T08:20:19.913Z,24.16
2024-04-09T08:22:50.811Z,24.04
2024-04-09T08:25:20.172Z,24.36
2024-04-09T08:27:47.999Z,24.58
2024-04-09T08:30:20.035Z,24.71
2024-04-09T08:32:48.002Z,24.94
2024-04-09T08:35:15.075Z,25.09
2024-04-09T08:37:46.434Z,25.43
2024-04-09T08:40:19.547Z,25.35
2024-04-09T08:42:48.312Z,25.31
2024-04-09T08:45:20.700Z,25.75
2024-04-09T08:47:50.585Z,26.37
2024-04-09T08:50:18.532Z,27.10
2024-04-09T08:52:47.101Z,27.77
2024-04-09T08:55:21.150Z,28.45
2024-04-09T08:57:52.070Z,29.08
2024-04-09T09:00:20.190Z,29.03
2024-04-09T09:02:47.556Z,29.13
2024-04-09T09:05:24.397Z,28.94
2024-04-09T09:08:05.827Z,29.52
2024-04-09T09:10:35.231Z,29.35
2024-04-09T09:13:06.006Z,29.68
2024-04-09T09:15:34.523Z,29.16
2024-04-09T09:18:06.227Z,29.02
2024-04-09T09:20:36.196Z,28.19
2024-04-09T09:23:05.915Z,27.71
2024-04-09T09:25:33.496Z,27.90
2024-04-09T09:28:10.107Z,26.95
2024-04-09T09:30:43.141Z,25.88
2024-04-09T09:33:23.414Z,26.23
2024-04-09T09:35:52.467Z,26.18
2024-04-09T09:38:22.192Z,26.19
2024-04-09T09:40:51.948Z,26.23
2024-04-09T09:43:21.949Z,27.26
2024-04-09T09:45:49.828Z,28.25
2024-04-09T09:48:27.557Z,28.35
2024-04-09T09:50:55.606Z,27.23
2024-04-09T09:53:23.683Z,26.66
2024-04-09T09:55:56.804Z,25.69
2024-04-09T09:58:32.553Z,25.25
2024-04-09T10:01:06.208Z,25.18
2024-04-09T10:03:36.640Z,25.05
2024-04-09T10:06:04.658Z,25.14
2024-04-09T10:08:32.255Z,25.11
2024-04-09T10:10:59.431Z,25.34
2024-04-09T10:13:29.551Z,24.99
2024-04-09T10:15:58.701Z,25.51
2024-04-09T10:18:30.156Z,25.91
2024-04-09T10:20:59.853Z,25.50
2024-04-09T10:23:31.805Z,25.51
2024-04-09T10:25:59.349Z,25.27
2024-04-09T10:28:34.442Z,24.59
2024-04-09T10:31:10.964Z,23.98
2024-04-09T10:33:41.489Z,23.97
2024-04-09T10:36:13.571Z,24.03
2024-04-09T10:38:45.945Z,23.95
2024-04-09T10:41:16.689Z,23.59
2024-04-09T10:43:47.531Z,23.38
2024-04-09T10:46:16.131Z,22.97
2024-04-09T10:48:46.848Z,22.72
2024-04-09T10:51:19.863Z,22.56
2024-04-09T10:53:48.950Z,22.27
2024-04-09T10:56:16.227Z,22.16
2024-04-09T10:58:46.101Z,22.42
2024-04-09T11:01:17.172Z,22.14
2024-04-09T11:03:46.182Z,22.16
2024-04-09T11:06:17.504Z,22.38
2024-04-09T11:08:47.422Z,22.07
2024-04-09T11:11:15.552Z,21.73
2024-04-09T11:13:44.832Z,21.83
2024-04-09T11:16:22.408Z,21.82
2024-04-09T11:19:07.149Z,22.08
2024-04-09T11:21:35.314Z,22.14
2024-04-09T11:24:05.859Z,21.66
2024-04-09T11:26:35.652Z,21.78
2024-04-09T11:29:02.804Z,21.83
2024-04-09T11:31:33.953Z,22.01
2024-04-09T11:34:06.965Z,21.92
2024-04-09T11:36:39.687Z,21.94
2024-04-09T11:39:07.544Z,22.06
2024-04-09T11:41:34.882Z,22.51
2024-04-09T11:44:02.238Z,22.49
2024-04-09T11:46:29.426Z,22.81
2024-04-09T11:49:01.800Z,23.76
2024-04-09T11:51:31.568Z,24.32
2024-04-09T11:53:59.023Z,23.88
2024-04-09T11:56:26.243Z,24.27
2024-04-09T11:58:53.491Z,24.43
2024-04-09T12:01:21.619Z,24.17
2024-04-09T12:03:48.881Z,24.33
2024-04-09T12:06:16.085Z,24.06
2024-04-09T12:08:47.227Z,23.95
2024-04-09T12:11:22.200Z,23.38
2024-04-09T12:13:49.655Z,23.40
2024-04-09T12:16:17.511Z,23.34
2024-04-09T12:18:44.964Z,22.72
2024-04-09T12:21:12.599Z,22.64
2024-04-09T12:23:39.793Z,22.36
2024-04-09T12:26:07.064Z,22.22
2024-04-09T12:28:34.301Z,21.88
2024-04-09T12:31:01.542Z,21.72
2024-04-09T12:33:33.104Z,21.60
2024-04-09T12:36:03.536Z,21.40
2024-04-09T12:38:33.753Z,21.43
2024-04-09T12:41:01.129Z,21.46
2024-04-09T12:43:28.364Z,21.11
2024-04-09T12:45:55.707Z,21.05
2024-04-09T12:48:23.754Z,21.10
2024-04-09T12:50:53.469Z,21.27
2024-04-09T12:53:20.647Z,21.57
2024-04-09T12:55:49.228Z,21.64
2024-04-09T12:58:19.234Z,21.45
2024-04-09T13:01:01.790Z,21.33
2024-04-09T13:03:37.758Z,20.95
2024-04-09T13:06:05.730Z,21.00
2024-04-09T13:08:35.833Z,20.68
2024-04-09T13:11:03.563Z,20.50
2024-04-09T13:13:35.723Z,20.42
2024-04-09T13:18:34.285Z,20.57
2024-04-09T13:21:01.989Z,20.80
2024-04-09T13:23:31.987Z,20.51
2024-04-09T13:26:01.895Z,20.00
2024-04-09T13:28:30.431Z,19.73
2024-04-09T13:30:58.383Z,19.62
2024-04-09T13:33:25.653Z,19.49
2024-04-09T13:35:52.869Z,19.61
2024-04-09T13:38:25.717Z,18.96
2024-04-09T13:40:53.037Z,18.84
2024-04-09T13:43:23.103Z,18.98
2024-04-09T13:45:54.437Z,19.06
2024-04-09T13:48:22.581Z,19.04
2024-04-09T13:50:55.408Z,18.73
2024-04-09T13:53:23.495Z,18.76
2024-04-09T13:55:50.722Z,18.75
2024-04-09T13:58:18.133Z,18.22
2024-04-09T14:00:46.735Z,18.08
2024-04-09T14:03:16.426Z,17.52
2024-04-09T14:05:44.797Z,17.32
2024-04-09T14:08:12.385Z,17.06
2024-04-09T14:10:45.713Z,17.03
2024-04-09T14:13:13.752Z,16.92
2024-04-09T14:15:45.796Z,16.93
2024-04-09T14:18:17.407Z,16.92
2024-04-09T14:20:52.247Z,16.92
2024-04-09T14:23:20.824Z,16.59
2024-04-09T14:25:48.750Z,16.36
2024-04-09T14:28:15.985Z,16.27
2024-04-09T14:30:46.838Z,16.40
2024-04-09T14:33:18.026Z,16.39
2024-04-09T14:35:45.428Z,16.51
2024-04-09T14:38:12.724Z,16.52
2024-04-09T14:40:39.827Z,16.55
2024-04-09T14:43:07.794Z,16.70
2024-04-09T14:45:35.001Z,16.55
2024-04-09T14:48:03.834Z,16.62
2024-04-09T14:50:32.906Z,16.58
2024-04-09T14:53:03.300Z,16.47
2024-04-09T14:55:33.068Z,16.28
2024-04-09T14:58:00.408Z,16.44
2024-04-09T15:00:29.820Z,15.61
2024-04-09T15:02:57.145Z,15.40
2024-04-09T15:05:24.327Z,15.05
2024-04-09T15:07:51.526Z,15.39
2024-04-09T15:10:29.225Z,15.23
2024-04-09T15:12:59.250Z,15.13
2024-04-09T15:15:26.502Z,14.56
2024-04-09T15:17:56.372Z,15.01
2024-04-09T15:20:25.754Z,14.99
2024-04-09T15:22:52.887Z,14.81
2024-04-09T15:25:20.834Z,14.91
2024-04-09T15:27:48.333Z,14.49
2024-04-09T15:30:20.113Z,14.70
2024-04-09T15:32:50.583Z,14.77
2024-04-09T15:35:20.981Z,14.86
2024-04-09T15:37:53.642Z,15.06
2024-04-09T15:40:26.771Z,14.62
2024-04-09T15:42:53.975Z,14.92
2024-04-09T15:45:23.861Z,14.42
2024-04-09T15:47:53.728Z,14.44
2024-04-09T15:50:21.156Z,14.60
2024-04-09T15:52:50.901Z,14.58
2024-04-09T15:55:20.498Z,14.61
2024-04-09T15:57:47.966Z,14.58
2024-04-09T16:00:16.559Z,14.45
2024-04-09T16:02:46.567Z,14.28
2024-04-09T16:05:16.628Z,14.70
2024-04-09T16:07:47.095Z,14.77
2024-04-09T16:10:16.890Z,14.83
2024-04-09T16:12:47.462Z,15.06
2024-04-09T16:15:17.328Z,15.07
2024-04-09T16:17:45.496Z,14.63
2024-04-09T16:20:13.308Z,14.34
2024-04-09T16:22:40.562Z,14.76
2024-04-09T16:25:10.332Z,14.40
2024-04-09T16:27:39.577Z,14.46
2024-04-09T16:30:08.252Z,14.37
2024-04-09T16:32:36.986Z,14.61
2024-04-09T16:35:04.708Z,14.58
2024-04-09T16:37:31.932Z,14.56
2024-04-09T16:39:59.066Z,14.57
2024-04-09T16:42:28.407Z,14.45
2024-04-09T16:44:55.577Z,14.49
2024-04-09T16:47:25.302Z,14.81
2024-04-09T16:49:55.413Z,14.81
2024-04-09T16:52:23.995Z,14.96
2024-04-09T16:54:53.859Z,14.79
2024-04-09T16:57:33.364Z,14.48
2024-04-09T17:00:18.156Z,14.73
2024-04-09T17:02:52.139Z,14.80
2024-04-09T17:05:22.475Z,14.82
2024-04-09T17:07:54.476Z,14.87
2024-04-09T17:10:27.884Z,14.77
2024-04-09T17:12:55.065Z,14.77
2024-04-09T17:15:22.757Z,14.81
2024-04-09T17:17:51.276Z,15.21
2024-04-09T17:20:22.196Z,15.18
2024-04-09T17:22:49.463Z,15.13
2024-04-09T17:25:18.483Z,14.89
2024-04-09T17:27:47.258Z,14.83
2024-04-09T17:30:15.067Z,14.69
2024-04-09T17:32:45.412Z,14.82
2024-04-09T17:35:13.337Z,14.90
2024-04-09T17:37:40.843Z,14.63
2024-04-09T17:40:09.538Z,14.78
2024-04-09T17:42:38.883Z,14.72
2024-04-09T17:45:10.399Z,14.81
2024-04-09T17:47:40.119Z,14.47
2024-04-09T17:50:11.408Z,14.32
2024-04-09T17:52:43.690Z,14.43
2024-04-09T17:55:15.281Z,14.42
2024-04-09T17:57:46.631Z,14.56
2024-04-09T18:00:16.389Z,14.61
2024-04-09T18:02:43.756Z,14.54
2024-04-09T18:05:11.451Z,14.78
2024-04-09T18:07:38.865Z,14.79
2024-04-09T18:10:06.857Z,14.37
2024-04-09T18:12:34.218Z,14.80
2024-04-09T18:15:01.285Z,14.79
2024-04-09T18:17:30.021Z,14.90
2024-04-09T18:19:57.688Z,14.71
2024-04-09T18:22:25.318Z,14.64
2024-04-09T18:24:53.368Z,14.51
2024-04-09T18:27:20.837Z,14.47
2024-04-09T18:29:50.139Z,14.68
2024-04-09T18:32:19.987Z,14.85
2024-04-09T18:34:47.271Z,14.89
2024-04-09T18:37:14.456Z,14.98
2024-04-09T18:39:44.981Z,14.74
2024-04-09T18:42:15.401Z,14.79
2024-04-09T18:44:42.786Z,14.79
2024-04-09T18:47:16.005Z,14.56
2024-04-09T18:49:47.880Z,14.63
2024-04-09T18:52:15.131Z,14.47
2024-04-09T18:54:42.410Z,14.70
2024-04-09T18:57:11.723Z,14.51
2024-04-09T18:59:41.432Z,14.49
2024-04-09T19:02:08.774Z,14.32
2024-04-09T19:04:37.329Z,14.26
2024-04-09T19:07:07.219Z,14.31
2024-04-09T19:09:40.422Z,14.45
2024-04-09T19:12:10.345Z,14.57
2024-04-09T19:14:38.782Z,14.32
2024-04-09T19:17:06.231Z,14.22
2024-04-09T19:19:36.694Z,14.48
2024-04-09T19:22:04.471Z,14.73
2024-04-09T19:24:34.033Z,14.49
2024-04-09T19:27:01.715Z,14.51
2024-04-09T19:29:31.168Z,14.57
2024-04-09T19:32:04.281Z,14.49
2024-04-09T19:34:34.086Z,14.64
2024-04-09T19:37:04.174Z,14.49
2024-04-09T19:39:31.369Z,14.46
2024-04-09T19:41:58.534Z,14.59
2024-04-09T19:44:26.215Z,14.51
2024-04-09T19:46:54.997Z,14.49
2024-04-09T19:49:23.629Z,14.73
2024-04-09T19:51:51.343Z,14.56
2024-04-09T19:54:19.056Z,14.63
2024-04-09T19:56:46.463Z,14.44
2024-04-09T19:59:13.975Z,14.60
2024-04-09T20:01:43.881Z,14.61
2024-04-09T20:04:11.614Z,14.42
2024-04-09T20:06:39.537Z,14.40
2024-04-09T20:09:10.765Z,14.47
2024-04-09T20:11:38.294Z,14.47
2024-04-09T20:14:06.091Z,14.42
2024-04-09T20:16:33.358Z,14.40
2024-04-09T20:19:01.212Z,14.39
2024-04-09T20:21:28.385Z,14.37
2024-04-09T20:23:55.569Z,14.72
2024-04-09T20:26:23.669Z,14.76
2024-04-09T20:28:51.592Z,14.65
2024-04-09T20:31:18.824Z,14.46
2024-04-09T20:33:49.812Z,14.48
2024-04-09T20:36:19.628Z,14.79
2024-04-09T20:38:47.022Z,14.65
2024-04-09T20:41:14.343Z,14.63
2024-04-09T20:43:42.215Z,14.81
2024-04-09T20:46:11.589Z,14.68
2024-04-09T20:48:38.928Z,14.61
2024-04-09T20:51:07.444Z,14.29
2024-04-09T20:53:35.177Z,14.33
2024-04-09T20:56:09.404Z,14.53
2024-04-09T20:58:38.933Z,14.63
2024-04-09T21:01:09.322Z,14.60
2024-04-09T21:03:36.722Z,14.50
2024-04-09T21:06:06.808Z,14.12
2024-04-09T21:08:34.075Z,14.01
2024-04-09T21:11:01.619Z,14.28
2024-04-09T21:13:28.730Z,14.30
2024-04-09T21:15:56.002Z,14.34
2024-04-09T21:18:25.135Z,14.30
2024-04-09T21:20:52.333Z,14.30
2024-04-09T21:23:19.680Z,14.23
2024-04-09T21:25:47.074Z,14.33
2024-04-09T21:28:19.087Z,14.26
2024-04-09T21:30:46.611Z,14.35
2024-04-09T21:33:15.317Z,14.34
2024-04-09T21:35:42.472Z,14.64
2024-04-09T21:38:09.790Z,14.43
2024-04-09T21:40:36.994Z,14.47
2024-04-09T21:43:07.458Z,14.47
2024-04-09T21:45:34.690Z,14.65
2024-04-09T21:48:02.051Z,14.54
2024-04-09T21:50:32.627Z,14.31
2024-04-09T21:52:59.882Z,14.41
2024-04-09T21:55:27.031Z,14.54
2024-04-09T21:57:54.235Z,14.44
2024-04-09T22:00:21.945Z,14.43
2024-04-09T22:02:52.171Z,14.53
2024-04-09T22:05:21.952Z,14.54
2024-04-09T22:07:50.022Z,14.30
2024-04-09T22:10:18.204Z,14.09
2024-04-09T22:12:49.008Z,14.39
2024-04-09T22:15:16.381Z,14.30
2024-04-09T22:17:47.331Z,14.25
2024-04-09T22:20:14.784Z,14.09
2024-04-09T22:22:42.017Z,14.07
2024-04-09T22:25:09.231Z,14.17
2024-04-09T22:27:44.657Z,13.79
2024-04-09T22:30:12.208Z,13.86
2024-04-09T22:32:41.337Z,13.83
2024-04-09T22:35:11.272Z,13.50
2024-04-09T22:37:38.582Z,13.52
2024-04-09T22:40:06.577Z,13.35
2024-04-09T22:42:35.709Z,13.45
2024-04-09T22:45:04.012Z,13.45
2024-04-09T22:47:34.665Z,13.71
2024-04-09T22:50:06.756Z,13.20
2024-04-09T22:52:34.042Z,13.43
2024-04-09T22:55:01.247Z,13.36
2024-04-09T22:57:28.446Z,13.50
2024-04-09T22:59:58.216Z,13.55
2024-04-09T23:02:28.285Z,13.50
2024-04-09T23:04:55.653Z,13.30
2024-04-09T23:07:22.760Z,13.33
2024-04-09T23:09:55.407Z,13.04
2024-04-09T23:12:23.168Z,12.93
2024-04-09T23:14:51.402Z,13.07
2024-04-09T23:17:18.961Z,13.29
2024-04-09T23:19:46.282Z,12.91
2024-04-09T23:22:15.517Z,12.82
2024-04-09T23:24:42.686Z,12.69
2024-04-09T23:27:10.469Z,12.53
2024-04-09T23:29:37.962Z,12.56
2024-04-09T23:32:05.233Z,12.69
2024-04-09T23:34:32.423Z,12.36
2024-04-09T23:37:01.701Z,12.60
2024-04-09T23:39:32.230Z,12.78
2024-04-09T23:42:05.972Z,12.89
2024-04-09T23:44:34.341Z,12.84
2024-04-09T23:47:03.003Z,12.44
2024-04-09T23:49:31.073Z,12.48
2024-04-09T23:52:00.858Z,12.52
2024-04-09T23:54:32.666Z,12.61
2024-04-09T23:57:00.030Z,12.65
2024-04-09T23:59:27.336Z,12.67
